Time;durP1;ratioP1;P1;durP2;ratioP2;P2;SDS_P1;SDS_P2;PMS_P1;PMS_P2;Temp;Humidity;BMP_temperature;BMP_pressure;BME280_temperature;BME280_humidity;BME280_pressure;Samples;Min_cycle;Max_cycle;Signal;HPM_P1;HPM_P2
2022/07/15 00:00:56;;;;;;;6.63;1.13;;;;;;;10.16;93.05;101941.72;2096453;28;22505;-68
2022/07/15 00:01:58;;;;;;;7.18;0.77;;;;;;;10.18;93.61;101940.84;2096760;28;20798;-68
2022/07/15 00:03:00;;;;;;;9.48;0.75;;;;;;;10.23;93.55;101938.13;2096911;28;20783;-68
2022/07/15 00:04:03;;;;;;;4.60;0.70;;;;;;;10.31;93.85;101933.66;2096206;28;38803;-69
2022/07/15 00:05:07;;;;;;;5.22;0.50;;;;;;;10.30;93.41;101938.09;2097264;28;20245;-68
2022/07/15 00:06:08;;;;;;;7.75;0.70;;;;;;;10.34;93.05;101933.66;2095912;28;36627;-68
2022/07/15 00:07:13;;;;;;;8.02;0.63;;;;;;;10.41;93.56;101932.72;2096492;28;35683;-69
2022/07/15 00:08:17;;;;;;;8.75;0.90;;;;;;;10.49;93.81;101929.97;2097721;28;20159;-69
2022/07/15 00:09:18;;;;;;;7.30;0.90;;;;;;;10.51;93.13;101928.16;2096100;28;39509;-69
2022/07/15 00:10:23;;;;;;;6.85;0.70;;;;;;;10.55;92.72;101935.31;2097263;28;20053;-68
2022/07/15 00:11:25;;;;;;;7.63;0.55;;;;;;;10.60;92.59;101936.13;2096462;28;26506;-68
2022/07/15 00:12:27;;;;;;;8.68;0.77;;;;;;;10.64;92.37;101927.19;2096787;28;20909;-69
2022/07/15 00:13:29;;;;;;;7.72;0.85;;;;;;;10.69;92.05;101933.41;2103209;28;27370;-69
2022/07/15 00:14:30;;;;;;;11.98;1.73;;;;;;;10.72;91.70;101936.97;2104198;28;21641;-69
2022/07/15 00:15:32;;;;;;;8.32;0.95;;;;;;;10.74;91.79;101935.16;2096126;28;33312;-69
2022/07/15 00:16:36;;;;;;;8.57;0.80;;;;;;;10.76;91.62;101928.88;2095887;28;32700;-69
2022/07/15 00:17:41;;;;;;;6.38;0.63;;;;;;;10.78;91.20;101928.88;2097077;28;20083;-69
2022/07/15 00:18:44;;;;;;;3.20;0.57;;;;;;;10.80;90.97;101930.66;2096090;28;33521;-69
2022/07/15 00:19:47;;;;;;;4.47;0.57;;;;;;;10.81;90.68;101929.75;2096630;28;25318;-69
2022/07/15 00:20:49;;;;;;;9.95;0.75;;;;;;;10.86;90.94;101935.06;2104374;28;22348;-69
2022/07/15 00:21:53;;;;;;;5.25;0.60;;;;;;;10.87;91.12;101928.78;2103512;28;21738;-69
2022/07/15 00:22:54;;;;;;;4.28;0.40;;;;;;;10.88;90.58;101928.78;2095899;28;20205;-69
2022/07/15 00:23:56;;;;;;;8.32;0.77;;;;;;;10.90;90.44;101931.47;2087813;28;23303;-69
2022/07/15 00:24:58;;;;;;;4.85;0.95;;;;;;;10.91;90.56;101932.34;2095925;28;27160;-69
2022/07/15 00:26:00;;;;;;;8.00;0.50;;;;;;;10.92;90.50;101931.44;2096731;28;24282;-69
2022/07/15 00:27:04;;;;;;;5.90;0.45;;;;;;;10.93;90.63;101931.44;2104552;28;20041;-69
2022/07/15 00:28:07;;;;;;;10.05;0.98;;;;;;;10.95;90.14;101934.13;2104546;28;20037;-69
2022/07/15 00:29:10;;;;;;;6.70;0.70;;;;;;;10.96;90.26;101942.09;2087400;28;20080;-69
2022/07/15 00:30:15;;;;;;;6.47;0.47;;;;;;;10.99;90.38;101942.09;2096151;28;21023;-69
2022/07/15 00:31:17;;;;;;;4.75;0.80;;;;;;;11.00;90.27;101935.84;2096864;28;20033;-69
2022/07/15 00:32:19;;;;;;;4.53;0.68;;;;;;;11.03;89.89;101932.22;2096610;28;20965;-69
2022/07/15 00:33:23;;;;;;;7.85;0.70;;;;;;;11.05;89.87;101939.38;2095855;28;21022;-69
2022/07/15 00:34:25;;;;;;;8.75;0.90;;;;;;;11.07;90.10;101936.66;2088314;28;20038;-69
2022/07/15 00:35:29;;;;;;;7.35;0.50;;;;;;;11.10;89.79;101933.09;2095503;28;29243;-69
2022/07/15 00:36:31;;;;;;;6.45;0.60;;;;;;;11.13;89.73;101938.41;2096483;28;20033;-69
2022/07/15 00:37:33;;;;;;;6.03;0.63;;;;;;;11.14;89.76;101942.88;2096387;28;22279;-69
2022/07/15 00:38:35;;;;;;;8.20;0.57;;;;;;;11.18;89.65;101941.91;2096130;28;20052;-69
2022/07/15 00:39:37;;;;;;;6.40;0.50;;;;;;;11.21;89.23;101942.78;2096000;28;20311;-69
2022/07/15 00:40:47;;;;;;;5.85;0.70;;;;;;;11.22;88.83;101941.00;2096696;28;20041;-69
2022/07/15 00:41:51;;;;;;;7.25;0.70;;;;;;;11.23;89.09;101929.38;2096581;28;20122;-69
2022/07/15 00:42:53;;;;;;;4.22;0.40;;;;;;;11.28;88.65;101939.13;2095489;28;32600;-69
2022/07/15 00:43:55;;;;;;;7.57;0.88;;;;;;;11.34;88.57;101932.84;2087273;28;22428;-69
2022/07/15 00:44:57;;;;;;;7.30;0.50;;;;;;;11.37;88.15;101939.97;2096212;28;20135;-69
2022/07/15 00:45:59;;;;;;;4.88;0.60;;;;;;;11.37;88.16;101934.59;2096440;28;20037;-69
2022/07/15 00:47:03;;;;;;;7.28;0.70;;;;;;;11.39;88.04;101935.47;2095822;28;20050;-69
2022/07/15 00:48:06;;;;;;;5.93;0.70;;;;;;;11.40;87.95;101935.47;2087689;28;20044;-69
2022/07/15 00:49:10;;;;;;;6.28;0.60;;;;;;;11.42;88.05;101930.97;2096395;28;20798;-69
2022/07/15 00:50:14;;;;;;;6.50;0.60;;;;;;;11.43;87.56;101927.38;2095779;28;21638;-69
2022/07/15 00:51:18;;;;;;;4.60;0.55;;;;;;;11.43;87.41;101926.47;2088204;28;20127;-69
2022/07/15 00:52:24;;;;;;;10.52;0.85;;;;;;;11.46;87.70;101932.69;2088324;28;20659;-69
2022/07/15 00:53:29;;;;;;;3.55;0.38;;;;;;;11.47;87.74;101928.25;2096345;28;20108;-69
2022/07/15 00:54:32;;;;;;;4.60;0.57;;;;;;;11.50;87.64;101924.63;2103205;28;20113;-69
2022/07/15 00:55:43;;;;;;;7.35;0.52;;;;;;;11.52;87.47;101925.50;2103338;28;20138;-69
2022/07/15 00:56:56;;;;;;;7.35;0.70;;;;;;;11.53;87.40;101925.47;2080546;28;20042;-69
2022/07/15 00:58:03;;;;;;;7.05;0.45;;;;;;;11.56;87.39;101924.56;2083934;28;20499;-69
2022/07/15 00:59:09;;;;;;;4.20;0.47;;;;;;;11.55;87.05;101920.97;2089881;28;20211;-69
2022/07/15 01:00:16;;;;;;;3.53;0.40;;;;;;;11.57;87.11;101923.66;2089463;28;21434;-69
2022/07/15 01:01:21;;;;;;;7.13;0.50;;;;;;;11.58;87.12;101918.28;2097361;28;24522;-69
2022/07/15 01:02:23;;;;;;;8.93;0.52;;;;;;;11.60;87.27;101923.63;2090320;28;20041;-69
2022/07/15 01:03:30;;;;;;;5.13;0.52;;;;;;;11.61;87.11;101925.38;2089201;28;21003;-69
2022/07/15 01:04:33;;;;;;;7.57;0.60;;;;;;;11.61;87.37;101920.94;2097558;28;21743;-69
2022/07/15 01:05:37;;;;;;;5.50;0.50;;;;;;;11.63;86.57;101929.84;2105889;28;20056;-69
2022/07/15 01:06:39;;;;;;;6.43;0.63;;;;;;;11.64;86.82;101926.25;2104767;28;20053;-69
2022/07/15 01:07:42;;;;;;;5.45;0.52;;;;;;;11.67;86.99;101932.50;2089400;28;21006;-69
2022/07/15 01:08:44;;;;;;;8.27;0.60;;;;;;;11.70;86.82;101924.41;2089179;28;20091;-69
2022/07/15 01:09:47;;;;;;;7.60;0.50;;;;;;;11.70;86.79;101927.06;2097419;28;20053;-69
2022/07/15 01:10:51;;;;;;;7.68;0.73;;;;;;;11.73;87.09;101929.72;2096963;28;20037;-69
2022/07/15 01:11:54;;;;;;;7.47;0.40;;;;;;;11.71;86.72;101929.75;2089318;28;20164;-69
2022/07/15 01:12:56;;;;;;;8.40;0.60;;;;;;;11.70;86.80;101925.31;2089412;28;20099;-69
2022/07/15 01:14:04;;;;;;;8.95;0.65;;;;;;;11.70;86.76;101929.75;2089596;28;20088;-69
2022/07/15 01:15:07;;;;;;;12.35;1.23;;;;;;;11.69;86.53;101928.88;2090053;28;20881;-69
2022/07/15 01:16:09;;;;;;;4.47;0.50;;;;;;;11.66;86.82;101926.22;2088820;28;20041;-69
2022/07/15 01:17:11;;;;;;;6.90;0.45;;;;;;;11.65;87.01;101922.66;2089044;28;20915;-69
2022/07/15 01:18:19;;;;;;;3.75;0.30;;;;;;;11.66;87.26;101931.59;2089603;28;20112;-69
2022/07/15 01:19:23;;;;;;;8.05;0.50;;;;;;;11.65;86.84;101927.16;2097305;28;21991;-69
2022/07/15 01:20:25;;;;;;;3.80;0.35;;;;;;;11.66;86.78;101934.28;2105688;28;20457;-69
2022/07/15 01:21:32;;;;;;;11.48;0.70;;;;;;;11.64;87.00;101926.25;2097064;28;20041;-69
2022/07/15 01:22:38;;;;;;;6.55;0.70;;;;;;;11.63;87.16;101931.66;2097585;28;20124;-69
2022/07/15 01:23:42;;;;;;;11.40;0.65;;;;;;;11.62;86.85;101932.53;2097305;28;20114;-69
2022/07/15 01:25:00;;;;;;;8.73;0.77;;;;;;;11.62;87.39;101927.19;2097196;28;20081;-69
2022/07/15 01:26:03;;;;;;;7.18;0.50;;;;;;;11.59;86.98;101932.56;2089115;28;20938;-68
2022/07/15 01:27:07;;;;;;;5.50;0.40;;;;;;;11.56;86.78;101921.91;2097508;28;20037;-69
2022/07/15 01:28:11;;;;;;;9.15;0.50;;;;;;;11.52;87.25;101926.41;2097362;28;20045;-68
2022/07/15 01:29:13;;;;;;;7.68;0.80;;;;;;;11.52;87.78;101930.84;2080986;28;20035;-69
2022/07/15 01:30:16;;;;;;;5.47;0.55;;;;;;;11.51;87.61;101918.38;2081301;28;20038;-69
2022/07/15 01:31:19;;;;;;;8.77;1.13;;;;;;;11.47;87.93;101917.50;2089199;28;20846;-69
2022/07/15 01:32:21;;;;;;;5.72;0.60;;;;;;;11.43;88.00;101921.13;2088614;28;20107;-69
2022/07/15 01:33:23;;;;;;;5.57;0.55;;;;;;;11.41;87.57;101918.47;2097251;28;20894;-69
2022/07/15 01:34:28;;;;;;;7.32;0.52;;;;;;;11.40;88.32;101919.38;2088918;28;20172;-68
2022/07/15 01:35:32;;;;;;;9.40;0.73;;;;;;;11.38;87.89;101921.19;2097174;28;20929;-69
2022/07/15 01:36:34;;;;;;;8.48;0.75;;;;;;;11.37;88.27;101921.19;2089304;28;20985;-69
2022/07/15 01:37:39;;;;;;;8.85;0.65;;;;;;;11.37;88.43;101929.22;2089064;28;20263;-69
2022/07/15 01:38:41;;;;;;;7.05;0.40;;;;;;;11.34;88.31;101930.16;2089147;28;20165;-69
2022/07/15 01:39:52;;;;;;;7.05;0.52;;;;;;;11.31;88.63;101927.50;2081772;28;20800;-69
2022/07/15 01:40:55;;;;;;;6.55;0.70;;;;;;;11.32;88.68;101931.94;2089096;28;20115;-69
2022/07/15 01:41:57;;;;;;;11.95;1.00;;;;;;;11.28;88.68;101933.78;2098145;28;20041;-69
2022/07/15 01:43:02;;;;;;;6.63;0.50;;;;;;;11.28;88.75;101932.91;2096980;28;20167;-69
2022/07/15 01:44:04;;;;;;;8.70;0.63;;;;;;;11.28;89.10;101932.91;2097639;28;20941;-69
2022/07/15 01:45:08;;;;;;;8.05;0.73;;;;;;;11.33;89.42;101941.78;2097004;28;20056;-69
2022/07/15 01:46:11;;;;;;;6.28;0.63;;;;;;;11.33;89.22;101925.69;2080994;28;20164;-69
2022/07/15 01:47:13;;;;;;;8.02;0.55;;;;;;;11.34;88.93;101929.25;2088868;28;20084;-69
2022/07/15 01:49:56;;;;;;;10.07;0.80;;;;;;;11.39;89.01;101941.72;2090793;28;20037;-69
2022/07/15 01:51:24;;;;;;;9.27;0.60;;;;;;;11.46;89.11;101939.88;2095424;28;20041;-69
2022/07/15 01:52:26;;;;;;;12.30;0.88;;;;;;;11.47;88.63;101938.97;2097139;28;20041;-69
2022/07/15 01:53:29;;;;;;;6.25;0.70;;;;;;;11.48;88.97;101938.06;2088710;28;20171;-69
2022/07/15 01:54:32;;;;;;;5.07;0.50;;;;;;;11.49;89.07;101944.31;2089081;28;20081;-69
2022/07/15 01:55:37;;;;;;;9.05;0.90;;;;;;;11.51;89.10;101942.50;2089166;28;20038;-69
2022/07/15 01:56:39;;;;;;;8.52;0.85;;;;;;;11.54;89.31;101945.13;2088883;28;20041;-69
2022/07/15 01:57:42;;;;;;;7.38;0.88;;;;;;;11.56;89.34;101954.09;2080989;28;20931;-69
2022/07/15 01:58:47;;;;;;;8.13;0.75;;;;;;;11.58;89.40;101947.78;2088709;28;20052;-69
2022/07/15 01:59:50;;;;;;;11.30;0.80;;;;;;;11.58;88.96;101946.91;2089531;28;20089;-69
2022/07/15 02:01:02;;;;;;;8.73;0.88;;;;;;;11.60;89.32;101945.09;2081807;28;20935;-69
2022/07/15 02:02:04;;;;;;;8.45;0.80;;;;;;;11.62;89.26;101944.16;2090656;28;20042;-69
2022/07/15 02:03:07;;;;;;;8.30;0.90;;;;;;;11.66;89.44;101945.00;2096769;28;20989;-69
2022/07/15 02:04:12;;;;;;;7.30;0.70;;;;;;;11.66;89.02;101950.38;2096600;28;20048;-69
2022/07/15 02:05:14;;;;;;;8.50;0.50;;;;;;;11.67;89.16;101940.56;2096721;28;20122;-69
2022/07/15 02:06:17;;;;;;;9.73;0.73;;;;;;;11.70;89.07;101944.09;2089252;28;20049;-69
2022/07/15 02:07:21;;;;;;;7.95;0.70;;;;;;;11.73;89.32;101945.84;2096985;28;20108;-69
2022/07/15 02:08:25;;;;;;;6.40;0.65;;;;;;;11.74;89.26;101947.63;2088754;28;20037;-69
2022/07/15 02:09:29;;;;;;;6.93;0.50;;;;;;;11.75;88.95;101934.16;2088031;28;20037;-68
2022/07/15 02:10:40;;;;;;;7.80;0.60;;;;;;;11.75;88.96;101934.16;2088760;28;20542;-69
2022/07/15 02:11:49;;;;;;;10.50;0.60;;;;;;;11.77;88.99;101937.75;2090153;28;20046;-69
2022/07/15 02:12:51;;;;;;;7.47;0.70;;;;;;;11.79;89.06;101940.38;2088764;28;20037;-69
2022/07/15 02:14:01;;;;;;;6.78;0.70;;;;;;;11.78;88.95;101933.25;2088823;28;20061;-69
2022/07/15 02:15:05;;;;;;;8.00;0.77;;;;;;;11.79;88.87;101941.28;2088890;28;20077;-69
2022/07/15 02:16:15;;;;;;;7.65;0.75;;;;;;;11.80;89.08;101931.44;2098313;28;21027;-69
2022/07/15 02:17:17;;;;;;;5.53;0.52;;;;;;;11.79;88.75;101937.69;2105550;28;20066;-69
2022/07/15 02:18:19;;;;;;;6.68;0.40;;;;;;;11.80;88.87;101939.50;2096554;28;20103;-69
2022/07/15 02:19:24;;;;;;;5.43;0.55;;;;;;;11.78;89.01;101938.63;2088508;28;20030;-69
2022/07/15 02:20:30;;;;;;;6.68;0.50;;;;;;;11.78;88.74;101942.19;2097547;28;20046;-69
2022/07/15 02:21:32;;;;;;;8.32;0.80;;;;;;;11.76;88.69;101938.63;2096299;28;20119;-69
2022/07/15 02:22:39;;;;;;;10.48;0.90;;;;;;;11.76;89.21;101938.63;2096700;28;20894;-69
2022/07/15 02:23:43;;;;;;;6.20;0.40;;;;;;;11.74;89.15;101937.78;2104405;28;27527;-68
2022/07/15 02:24:45;;;;;;;8.77;0.77;;;;;;;11.73;89.46;101941.34;2096915;28;20098;-69
2022/07/15 02:25:53;;;;;;;7.50;0.73;;;;;;;11.69;89.24;101944.97;2089227;28;20084;-69
2022/07/15 02:26:59;;;;;;;7.35;0.57;;;;;;;11.63;89.40;101937.91;2097480;28;20045;-69
2022/07/15 02:28:05;;;;;;;8.27;0.77;;;;;;;11.61;89.46;101942.38;2096811;28;20053;-69
2022/07/15 02:29:07;;;;;;;12.48;1.02;;;;;;;11.58;90.23;101944.22;2089430;28;20919;-69
2022/07/15 02:30:09;;;;;;;7.80;0.73;;;;;;;11.55;90.05;101945.13;2088707;28;20225;-69
2022/07/15 02:31:14;;;;;;;9.32;0.80;;;;;;;11.51;90.21;101946.06;2088857;28;20123;-68
2022/07/15 02:32:17;;;;;;;9.45;0.80;;;;;;;11.50;90.23;101943.41;2097234;28;20048;-69
2022/07/15 02:33:18;;;;;;;6.70;1.10;;;;;;;11.46;90.64;101939.88;2096556;28;21755;-69
2022/07/15 02:34:20;;;;;;;6.97;0.60;;;;;;;11.43;90.42;101939.88;2097033;28;20033;-69
2022/07/15 02:35:25;;;;;;;4.32;0.60;;;;;;;11.40;90.85;101943.50;2096751;28;20044;-70
2022/07/15 02:36:27;;;;;;;8.57;0.70;;;;;;;11.39;90.64;101944.38;2096637;28;20055;-69
2022/07/15 02:37:29;;;;;;;7.38;0.57;;;;;;;11.37;90.81;101938.16;2088234;28;20056;-69
2022/07/15 02:38:31;;;;;;;4.57;0.50;;;;;;;11.39;91.46;101939.03;2088802;28;20153;-69
2022/07/15 02:39:33;;;;;;;6.35;0.50;;;;;;;11.37;91.41;101943.53;2096587;28;20142;-69
2022/07/15 02:40:34;;;;;;;8.07;0.70;;;;;;;11.40;91.32;101942.63;2088199;28;20187;-69
2022/07/15 02:41:43;;;;;;;6.68;0.73;;;;;;;11.40;91.98;101942.63;2089550;28;20061;-69
2022/07/15 02:42:53;;;;;;;7.85;0.73;;;;;;;11.43;91.83;101946.16;2095408;28;20037;-69
2022/07/15 02:43:55;;;;;;;6.97;0.68;;;;;;;11.42;91.70;101946.16;2088781;28;20875;-69
2022/07/15 02:44:57;;;;;;;7.88;0.55;;;;;;;11.44;91.68;101950.59;2071976;28;20050;-69
2022/07/15 02:46:04;;;;;;;7.55;0.70;;;;;;;11.46;91.99;101943.41;2080750;28;20184;-69
2022/07/15 02:47:07;;;;;;;8.60;1.10;;;;;;;11.50;91.82;101948.75;2088761;28;20103;-70
2022/07/15 02:48:09;;;;;;;8.07;0.73;;;;;;;11.51;91.82;101945.19;2088872;28;20041;-70
2022/07/15 02:49:18;;;;;;;9.30;0.93;;;;;;;11.51;91.71;101946.06;2089169;28;20939;-70
2022/07/15 02:50:20;;;;;;;7.38;0.60;;;;;;;11.52;91.31;101950.53;2089145;28;20046;-70
2022/07/15 02:51:23;;;;;;;5.55;0.90;;;;;;;11.53;91.35;101951.41;2087898;28;20045;-69
2022/07/15 02:52:25;;;;;;;8.05;0.90;;;;;;;11.55;91.66;101942.44;2088440;28;20030;-69
2022/07/15 02:53:28;;;;;;;7.35;0.68;;;;;;;11.53;91.78;101949.63;2079836;28;20042;-70
2022/07/15 02:54:34;;;;;;;6.38;0.98;;;;;;;11.56;91.56;101949.59;2082118;28;20046;-69
2022/07/15 02:55:36;;;;;;;6.03;0.50;;;;;;;11.57;92.00;101953.16;2088190;28;20116;-70
2022/07/15 02:56:38;;;;;;;8.23;0.70;;;;;;;11.58;91.36;101949.59;2088664;28;20045;-70
2022/07/15 02:57:41;;;;;;;8.90;0.95;;;;;;;11.58;91.57;101946.91;2087817;28;20046;-69
2022/07/15 02:58:42;;;;;;;9.25;0.80;;;;;;;11.59;92.10;101944.22;2088598;28;20123;-70
2022/07/15 02:59:44;;;;;;;10.38;1.23;;;;;;;11.60;91.52;101954.00;2080007;28;20047;-70
2022/07/15 03:00:49;;;;;;;5.63;0.73;;;;;;;11.60;91.59;101945.09;2072480;28;20109;-69
2022/07/15 03:01:51;;;;;;;8.55;0.93;;;;;;;11.61;91.83;101946.84;2088530;28;20899;-70
2022/07/15 03:02:56;;;;;;;4.63;0.70;;;;;;;11.62;91.49;101945.94;2094266;28;20045;-69
2022/07/15 03:04:00;;;;;;;9.70;1.30;;;;;;;11.60;91.63;101940.59;2096620;28;20914;-70
2022/07/15 03:05:03;;;;;;;7.88;0.80;;;;;;;11.60;91.76;101945.09;2105400;28;20041;-69
2022/07/15 03:06:05;;;;;;;6.90;0.90;;;;;;;11.60;92.28;101937.03;2095706;28;20116;-69
2022/07/15 03:07:09;;;;;;;6.95;1.08;;;;;;;11.58;91.52;101945.09;2079932;28;20050;-70
2022/07/15 03:08:11;;;;;;;9.50;0.85;;;;;;;11.57;91.90;101946.00;2089149;28;20041;-70
2022/07/15 03:09:15;;;;;;;6.07;0.73;;;;;;;11.53;91.81;101943.38;2105178;28;20464;-69
2022/07/15 03:10:17;;;;;;;5.53;0.75;;;;;;;11.50;92.09;101946.09;2096712;28;21011;-69
2022/07/15 03:11:22;;;;;;;9.30;1.10;;;;;;;11.46;92.36;101954.16;2080683;28;20889;-69
2022/07/15 03:12:25;;;;;;;5.53;0.80;;;;;;;11.41;92.36;101947.97;2088947;28;20938;-69
2022/07/15 03:13:30;;;;;;;8.73;1.10;;;;;;;11.39;93.45;101954.25;2088360;28;20037;-69
2022/07/15 03:14:33;;;;;;;6.75;1.10;;;;;;;11.33;92.27;101952.50;2096331;28;20045;-69
2022/07/15 03:15:37;;;;;;;11.63;1.90;;;;;;;11.26;92.88;101949.00;2097120;28;20037;-70
2022/07/15 03:16:38;;;;;;;6.10;1.00;;;;;;;11.21;93.07;101950.81;2088573;28;20048;-69
2022/07/15 03:17:40;;;;;;;6.15;0.68;;;;;;;11.19;93.54;101946.41;2088388;28;20046;-69
2022/07/15 03:18:42;;;;;;;9.10;0.80;;;;;;;11.13;93.68;101950.03;2088293;28;20202;-69
2022/07/15 03:19:44;;;;;;;5.63;1.38;;;;;;;11.10;93.75;101944.69;2088186;28;20076;-69
2022/07/15 03:20:46;;;;;;;13.50;1.42;;;;;;;11.07;93.95;101952.75;2087371;28;20052;-70
2022/07/15 03:21:49;;;;;;;10.35;1.15;;;;;;;11.05;94.34;101943.81;2096222;28;20029;-70
2022/07/15 03:22:54;;;;;;;9.23;1.10;;;;;;;11.06;95.07;101959.03;2096068;28;20818;-70
2022/07/15 03:23:56;;;;;;;8.45;1.30;;;;;;;11.07;95.33;101950.06;2080264;28;20973;-69
2022/07/15 03:25:03;;;;;;;6.28;0.95;;;;;;;11.02;94.69;101947.44;2089545;28;20037;-69
2022/07/15 03:26:07;;;;;;;9.68;0.80;;;;;;;11.03;95.13;101951.88;2096742;28;20044;-69
2022/07/15 03:27:10;;;;;;;10.25;1.25;;;;;;;11.01;95.21;101958.16;2096113;28;20049;-69
2022/07/15 03:28:14;;;;;;;8.02;1.08;;;;;;;11.00;95.06;101951.00;2079958;28;20147;-70
2022/07/15 03:29:16;;;;;;;8.00;1.17;;;;;;;10.98;94.88;101961.78;2080530;28;20046;-69
2022/07/15 03:30:22;;;;;;;9.95;1.38;;;;;;;10.97;95.31;101959.09;2088599;28;20044;-69
2022/07/15 03:31:24;;;;;;;11.00;1.30;;;;;;;10.95;95.20;101961.78;2088735;28;20147;-69
2022/07/15 03:32:26;;;;;;;5.35;0.90;;;;;;;10.96;95.44;101968.91;2088382;28;21400;-70
2022/07/15 03:33:30;;;;;;;8.45;1.17;;;;;;;11.00;95.73;101968.00;2096674;28;20037;-69
2022/07/15 03:34:32;;;;;;;10.13;1.27;;;;;;;11.00;95.57;101965.31;2104183;28;20033;-70
2022/07/15 03:35:35;;;;;;;7.47;1.40;;;;;;;10.99;95.21;101963.53;2095932;28;20933;-70
2022/07/15 03:36:39;;;;;;;5.05;0.93;;;;;;;11.04;95.49;101966.19;2087767;28;20049;-69
2022/07/15 03:37:43;;;;;;;9.27;1.65;;;;;;;11.09;95.96;101969.72;2087975;28;24628;-70
2022/07/15 03:38:45;;;;;;;9.77;1.27;;;;;;;11.12;95.93;101968.78;2096459;28;20048;-69
2022/07/15 03:39:50;;;;;;;7.43;1.40;;;;;;;11.16;95.52;101966.09;2096287;28;20056;-70
2022/07/15 03:40:55;;;;;;;9.18;1.45;;;;;;;11.19;95.57;101970.53;2088400;28;20044;-69
2022/07/15 03:41:57;;;;;;;5.22;1.05;;;;;;;11.21;95.45;101961.53;2088332;28;20044;-69
2022/07/15 03:42:59;;;;;;;10.98;1.60;;;;;;;11.25;95.41;101965.09;2087624;28;20050;-70
2022/07/15 03:44:03;;;;;;;8.02;1.27;;;;;;;11.32;95.51;101973.97;2096596;28;20041;-70
2022/07/15 03:45:05;;;;;;;8.98;1.13;;;;;;;11.34;95.01;101969.47;2096267;28;20995;-70
2022/07/15 03:46:07;;;;;;;9.07;1.48;;;;;;;11.37;94.70;101970.34;2088165;28;20053;-70
2022/07/15 03:47:11;;;;;;;5.82;0.90;;;;;;;11.40;94.57;101966.75;2095885;28;20045;-70
2022/07/15 03:48:13;;;;;;;8.10;1.05;;;;;;;11.44;94.63;101969.38;2088020;28;21032;-69
2022/07/15 03:49:15;;;;;;;6.75;1.17;;;;;;;11.47;94.46;101976.50;2087543;28;20061;-69
2022/07/15 03:50:17;;;;;;;7.97;1.33;;;;;;;11.49;94.16;101969.34;2088282;28;20049;-69
2022/07/15 03:51:24;;;;;;;6.57;0.80;;;;;;;11.52;94.07;101974.69;2096441;28;20869;-69
2022/07/15 03:52:28;;;;;;;9.85;1.40;;;;;;;11.55;94.05;101979.13;2104624;28;20040;-70
2022/07/15 03:53:33;;;;;;;8.02;0.85;;;;;;;11.56;93.63;101975.53;2096607;28;20049;-70
2022/07/15 03:54:35;;;;;;;5.38;1.17;;;;;;;11.60;93.68;101971.91;2096396;28;20147;-69
2022/07/15 03:55:37;;;;;;;7.65;1.50;;;;;;;11.60;93.58;101972.78;2096020;28;20106;-70
2022/07/15 03:56:40;;;;;;;6.72;0.60;;;;;;;11.64;93.26;101979.88;2095838;28;26916;-70
2022/07/15 03:57:41;;;;;;;6.35;1.00;;;;;;;11.68;93.49;101978.06;2097023;28;20063;-70
2022/07/15 03:58:44;;;;;;;10.50;1.60;;;;;;;11.70;93.16;101989.69;2096553;28;20218;-70
2022/07/15 03:59:47;;;;;;;12.27;1.05;;;;;;;11.74;92.95;101985.19;2096031;28;20030;-69
2022/07/15 04:00:51;;;;;;;5.93;0.80;;;;;;;11.76;92.52;101989.63;2096518;28;20084;-69
2022/07/15 04:01:53;;;;;;;8.32;1.10;;;;;;;11.79;92.50;101994.97;2095587;28;20044;-69
2022/07/15 04:02:55;;;;;;;6.82;1.08;;;;;;;11.82;92.37;101984.16;2096225;28;20185;-70
2022/07/15 04:04:00;;;;;;;8.77;1.02;;;;;;;11.86;91.25;101985.00;2096335;28;20110;-70
2022/07/15 04:05:06;;;;;;;6.55;1.20;;;;;;;11.90;91.22;101975.13;2096434;28;20037;-69
2022/07/15 04:06:11;;;;;;;7.60;0.90;;;;;;;11.93;91.49;101980.50;2095342;28;36013;-69
2022/07/15 04:07:13;;;;;;;8.75;0.93;;;;;;;11.96;90.76;101975.13;2080124;28;20209;-69
2022/07/15 04:08:15;;;;;;;8.13;0.82;;;;;;;11.99;90.65;101972.41;2079727;28;20729;-70
2022/07/15 04:09:16;;;;;;;4.45;0.60;;;;;;;12.02;90.39;101975.94;2088111;28;20045;-69
2022/07/15 04:10:19;;;;;;;7.28;0.95;;;;;;;12.06;89.83;101976.78;2096052;28;20068;-69
2022/07/15 04:11:21;;;;;;;5.53;0.70;;;;;;;12.08;89.71;101971.38;2104707;28;20037;-69
2022/07/15 04:12:23;;;;;;;7.15;0.57;;;;;;;12.10;88.70;101975.84;2104370;28;20049;-70
2022/07/15 04:13:25;;;;;;;5.93;0.85;;;;;;;12.13;89.02;101975.81;2104555;28;20140;-69
2022/07/15 04:14:27;;;;;;;8.55;0.70;;;;;;;12.16;89.26;101986.47;2096749;28;23027;-69
2022/07/15 04:15:29;;;;;;;7.65;1.02;;;;;;;12.20;88.83;101984.66;2096805;28;20962;-69
2022/07/15 04:16:33;;;;;;;6.00;0.70;;;;;;;12.24;89.04;101981.03;2087872;28;20040;-69
2022/07/15 04:17:43;;;;;;;6.95;0.77;;;;;;;12.27;88.30;101980.09;2089208;28;20042;-70
2022/07/15 04:18:45;;;;;;;6.30;0.70;;;;;;;12.30;87.94;101983.63;2095905;28;20139;-70
2022/07/15 04:19:47;;;;;;;5.95;0.55;;;;;;;12.33;87.85;101982.72;2104805;28;20173;-69
2022/07/15 04:20:51;;;;;;;8.98;0.70;;;;;;;12.37;87.78;101976.38;2104470;28;20054;-69
2022/07/15 04:21:53;;;;;;;4.47;0.52;;;;;;;12.40;87.93;101984.41;2095631;28;20191;-69
2022/07/15 04:22:55;;;;;;;4.70;0.60;;;;;;;12.45;87.63;101985.19;2086631;28;20057;-69
2022/07/15 04:23:58;;;;;;;6.35;0.40;;;;;;;12.56;87.14;101977.91;2096453;28;20157;-68
2022/07/15 04:24:59;;;;;;;5.50;0.60;;;;;;;12.61;86.61;101969.75;2095380;28;20752;-69
2022/07/15 04:26:02;;;;;;;3.55;0.32;;;;;;;12.73;86.58;101974.94;2088187;28;20101;-70
2022/07/15 04:27:06;;;;;;;8.65;0.60;;;;;;;12.78;85.79;101974.91;2095528;28;20155;-69
2022/07/15 04:28:07;;;;;;;3.80;0.30;;;;;;;12.84;85.10;101971.22;2096012;28;25171;-69
2022/07/15 04:29:11;;;;;;;6.75;0.50;;;;;;;12.90;85.03;101980.09;2095733;28;20748;-69
2022/07/15 04:30:16;;;;;;;4.45;0.45;;;;;;;12.94;84.14;101975.53;2088187;28;20992;-69
2022/07/15 04:31:22;;;;;;;7.68;0.60;;;;;;;13.02;84.36;101976.28;2095936;28;20561;-69
2022/07/15 04:32:34;;;;;;;3.83;0.43;;;;;;;13.08;84.20;101973.50;2088866;28;20053;-69
2022/07/15 04:33:36;;;;;;;4.65;0.40;;;;;;;13.16;83.73;101986.81;2088084;28;20119;-68
2022/07/15 04:34:41;;;;;;;8.00;0.50;;;;;;;13.22;83.42;101984.00;2088353;28;20045;-69
2022/07/15 04:35:44;;;;;;;4.65;0.40;;;;;;;13.40;82.82;101982.84;2095854;28;20045;-68
2022/07/15 04:36:45;;;;;;;4.90;0.30;;;;;;;13.48;82.11;101975.53;2095886;28;20134;-69
2022/07/15 04:37:47;;;;;;;4.55;0.30;;;;;;;13.61;81.55;101980.69;2088067;28;20114;-69
2022/07/15 04:38:52;;;;;;;6.20;0.40;;;;;;;13.69;80.62;101979.63;2088094;28;20159;-69
2022/07/15 04:39:56;;;;;;;4.60;0.52;;;;;;;13.82;80.11;101980.28;2088209;28;20942;-69
2022/07/15 04:40:58;;;;;;;4.63;0.35;;;;;;;13.96;79.83;101982.66;2079622;28;20096;-69
2022/07/15 04:41:59;;;;;;;5.22;0.38;;;;;;;14.19;78.49;101974.09;2079235;28;20131;-69
2022/07/15 04:43:03;;;;;;;5.63;0.50;;;;;;;14.68;76.71;101978.44;2088048;28;20135;-69
2022/07/15 04:44:05;;;;;;;5.35;0.47;;;;;;;15.24;74.92;101975.28;2095926;28;20044;-69
2022/07/15 04:45:08;;;;;;;8.35;0.57;;;;;;;15.97;71.87;101974.22;2096247;28;20997;-69
2022/07/15 04:46:09;;;;;;;2.65;0.50;;;;;;;16.84;69.78;101977.03;2087136;28;25323;-69
2022/07/15 04:47:14;;;;;;;2.88;0.30;;;;;;;17.45;66.34;101974.06;2096526;28;20106;-69
2022/07/15 04:51:07;;;;;;;3.53;0.30;;;;;;;19.40;55.90;101963.75;2096268;28;19917;-69
2022/07/15 04:52:12;;;;;;;2.90;0.32;;;;;;;20.01;56.51;101972.84;2087170;28;20045;-68
2022/07/15 04:53:21;;;;;;;2.10;0.20;;;;;;;20.37;54.03;101966.63;2079895;28;20120;-69
2022/07/15 04:54:23;;;;;;;3.13;0.20;;;;;;;20.79;53.12;101968.25;2079489;28;20753;-68
2022/07/15 04:55:26;;;;;;;1.98;0.20;;;;;;;21.48;52.02;101969.31;2088275;28;20893;-69
2022/07/15 04:56:37;;;;;;;1.90;0.20;;;;;;;22.02;51.19;101960.97;2087607;28;20950;-69
2022/07/15 04:57:42;;;;;;;2.10;0.30;;;;;;;21.81;48.75;101965.78;2096004;28;20049;-68
2022/07/15 04:58:45;;;;;;;4.20;0.40;;;;;;;22.16;50.07;101965.69;2087627;28;20053;-68
2022/07/15 04:59:48;;;;;;;6.65;0.30;;;;;;;22.62;49.60;101965.84;2087852;28;20173;-69
2022/07/15 05:00:54;;;;;;;3.47;0.30;;;;;;;23.09;47.67;101975.00;2087511;28;20171;-69